Airport Name : Wiley Post

Other Name : Wiley Post

ICAO : KPWA

IATA :

FAA : PWA

Latitude : 35.534167

Longitude : -97.647053

Country : United States

Local Date and Time : 15 Jul 2024 13:28

 

TAF (Terminal Aerodrome Forecast)

 

METAR (METeorological Aerodrome Report)

KPWA 151753Z 18016KT 10SM CLR 35/23 A2992 RMK AO2 SLP110 T03500233 10356 20256 58013

KPWA 151653Z 21015KT 10SM CLR 34/22 A2994 RMK AO2 SLP117 T03390222

KPWA 151553Z 21015KT 10SM CLR 32/22 A2995 RMK AO2 SLP122 T03220217

KPWA 151453Z 20014G22KT 10SM CLR 30/21 A2996 RMK AO2 SLP124 T03000211 50004